sensor_id;sensor_type;location;lat;lon;timestamp;pressure;altitude;pressure_sealevel;temperature;humidity
59043;BME280;44826;51.596;5.624;2023-05-23T00:00:12;101749.50;;;14.94;80.67
59043;BME280;44826;51.596;5.624;2023-05-23T00:02:38;101745.19;;;14.91;80.33
59043;BME280;44826;51.596;5.624;2023-05-23T00:05:04;101740.09;;;14.86;80.27
59043;BME280;44826;51.596;5.624;2023-05-23T00:07:29;101748.03;;;14.83;80.56
59043;BME280;44826;51.596;5.624;2023-05-23T00:09:56;101745.47;;;14.82;80.33
59043;BME280;44826;51.596;5.624;2023-05-23T00:12:21;101746.41;;;14.79;80.08
59043;BME280;44826;51.596;5.624;2023-05-23T00:14:47;101746.53;;;14.76;79.99
59043;BME280;44826;51.596;5.624;2023-05-23T00:17:12;101746.56;;;14.75;80.11
59043;BME280;44826;51.596;5.624;2023-05-23T00:19:37;101743.09;;;14.74;79.93
59043;BME280;44826;51.596;5.624;2023-05-23T00:22:03;101754.50;;;14.71;80.49
59043;BME280;44826;51.596;5.624;2023-05-23T00:24:28;101754.50;;;14.71;79.88
59043;BME280;44826;51.596;5.624;2023-05-23T00:26:53;101767.56;;;14.73;79.59
59043;BME280;44826;51.596;5.624;2023-05-23T00:29:19;101762.41;;;14.70;79.86
59043;BME280;44826;51.596;5.624;2023-05-23T00:31:44;101759.88;;;14.65;80.45
59043;BME280;44826;51.596;5.624;2023-05-23T00:34:15;101752.94;;;14.63;79.97
59043;BME280;44826;51.596;5.624;2023-05-23T00:36:44;101763.47;;;14.61;79.96
59043;BME280;44826;51.596;5.624;2023-05-23T00:39:12;101776.56;;;14.61;80.07
59043;BME280;44826;51.596;5.624;2023-05-23T00:41:43;101772.09;;;14.66;77.68
59043;BME280;44826;51.596;5.624;2023-05-23T00:44:08;101768.81;;;14.58;79.43
59043;BME280;44826;51.596;5.624;2023-05-23T00:46:33;101767.09;;;14.57;79.18
59043;BME280;44826;51.596;5.624;2023-05-23T00:49:00;101771.56;;;14.53;79.48
59043;BME280;44826;51.596;5.624;2023-05-23T00:51:26;101762.88;;;14.51;78.98
59043;BME280;44826;51.596;5.624;2023-05-23T00:53:51;101764.66;;;14.51;78.57
59043;BME280;44826;51.596;5.624;2023-05-23T00:56:18;101774.31;;;14.49;78.80
59043;BME280;44826;51.596;5.624;2023-05-23T00:58:45;101768.25;;;14.47;78.66
59043;BME280;44826;51.596;5.624;2023-05-23T01:01:10;101777.84;;;14.46;78.44
59043;BME280;44826;51.596;5.624;2023-05-23T01:03:36;101781.41;;;14.44;78.34
59043;BME280;44826;51.596;5.624;2023-05-23T01:06:01;101784.09;;;14.40;78.60
59043;BME280;44826;51.596;5.624;2023-05-23T01:08:28;101778.06;;;14.38;78.80
59043;BME280;44826;51.596;5.624;2023-05-23T01:10:53;101775.50;;;14.37;78.36
59043;BME280;44826;51.596;5.624;2023-05-23T01:13:42;101773.84;;;14.33;78.26
59043;BME280;44826;51.596;5.624;2023-05-23T01:16:29;101780.88;;;14.31;78.60
59043;BME280;44826;51.596;5.624;2023-05-23T01:19:07;101784.38;;;14.30;79.04
59043;BME280;44826;51.596;5.624;2023-05-23T01:21:42;101773.97;;;14.28;79.50
59043;BME280;44826;51.596;5.624;2023-05-23T01:29:42;101780.19;;;14.24;79.95
59043;BME280;44826;51.596;5.624;2023-05-23T01:32:10;101787.22;;;14.22;80.21
59043;BME280;44826;51.596;5.624;2023-05-23T01:34:37;101792.44;;;14.22;80.24
59043;BME280;44826;51.596;5.624;2023-05-23T01:37:08;101795.88;;;14.24;80.29
59043;BME280;44826;51.596;5.624;2023-05-23T01:39:34;101789.91;;;14.19;80.50
59043;BME280;44826;51.596;5.624;2023-05-23T01:42:00;101797.88;;;14.14;80.91
59043;BME280;44826;51.596;5.624;2023-05-23T01:44:25;101796.22;;;14.11;81.48
59043;BME280;44826;51.596;5.624;2023-05-23T01:46:50;101800.63;;;14.09;81.69
59043;BME280;44826;51.596;5.624;2023-05-23T01:49:16;101797.19;;;14.07;81.59
59043;BME280;44826;51.596;5.624;2023-05-23T01:51:42;101801.59;;;14.05;81.46
59043;BME280;44826;51.596;5.624;2023-05-23T01:54:08;101803.38;;;14.03;81.67
59043;BME280;44826;51.596;5.624;2023-05-23T01:56:33;101805.09;;;14.04;81.77
59043;BME280;44826;51.596;5.624;2023-05-23T01:58:59;101810.38;;;14.03;81.23
59043;BME280;44826;51.596;5.624;2023-05-23T02:01:25;101808.72;;;14.00;81.36
59043;BME280;44826;51.596;5.624;2023-05-23T02:03:51;101808.72;;;14.00;81.56
59043;BME280;44826;51.596;5.624;2023-05-23T02:06:16;101817.44;;;13.99;81.12
59043;BME280;44826;51.596;5.624;2023-05-23T02:08:41;101812.13;;;14.02;80.69
59043;BME280;44826;51.596;5.624;2023-05-23T02:11:07;101819.25;;;13.97;81.03
59043;BME280;44826;51.596;5.624;2023-05-23T02:13:33;101822.81;;;13.93;81.34
59043;BME280;44826;51.596;5.624;2023-05-23T02:15:58;101822.00;;;13.91;81.50
59043;BME280;44826;51.596;5.624;2023-05-23T02:18:24;101832.50;;;13.89;81.66
59043;BME280;44826;51.596;5.624;2023-05-23T02:20:50;101833.47;;;13.85;81.75
59043;BME280;44826;51.596;5.624;2023-05-23T02:23:15;101832.59;;;13.85;81.91
59043;BME280;44826;51.596;5.624;2023-05-23T02:25:41;101835.22;;;13.85;81.89
59043;BME280;44826;51.596;5.624;2023-05-23T02:28:06;101829.13;;;13.84;82.02
59043;BME280;44826;51.596;5.624;2023-05-23T02:30:31;101832.59;;;13.85;81.96
59043;BME280;44826;51.596;5.624;2023-05-23T02:32:56;101825.69;;;13.82;82.29
59043;BME280;44826;51.596;5.624;2023-05-23T02:35:22;101832.69;;;13.81;81.98
59043;BME280;44826;51.596;5.624;2023-05-23T02:37:47;101836.25;;;13.77;82.22
59043;BME280;44826;51.596;5.624;2023-05-23T02:40:12;101838.09;;;13.74;82.42
59043;BME280;44826;51.596;5.624;2023-05-23T02:42:38;101832.88;;;13.72;82.12
59043;BME280;44826;51.596;5.624;2023-05-23T02:45:03;101835.63;;;13.68;82.17
59043;BME280;44826;51.596;5.624;2023-05-23T02:47:28;101833.94;;;13.65;82.42
59043;BME280;44826;51.596;5.624;2023-05-23T02:49:54;101831.28;;;13.66;82.67
59043;BME280;44826;51.596;5.624;2023-05-23T02:52:19;101833.94;;;13.65;82.46
59043;BME280;44826;51.596;5.624;2023-05-23T02:54:45;101834.00;;;13.62;82.75
59043;BME280;44826;51.596;5.624;2023-05-23T02:57:10;101825.28;;;13.63;82.62
59043;BME280;44826;51.596;5.624;2023-05-23T02:59:35;101827.91;;;13.61;82.77
59043;BME280;44826;51.596;5.624;2023-05-23T03:02:00;101834.91;;;13.61;82.46
59043;BME280;44826;51.596;5.624;2023-05-23T03:04:26;101827.97;;;13.58;82.76
59043;BME280;44826;51.596;5.624;2023-05-23T03:06:51;101830.63;;;13.57;82.89
59043;BME280;44826;51.596;5.624;2023-05-23T03:09:18;101837.56;;;13.58;82.81
59043;BME280;44826;51.596;5.624;2023-05-23T03:11:44;101827.13;;;13.58;82.49
59043;BME280;44826;51.596;5.624;2023-05-23T03:14:09;101828.84;;;13.59;82.10
59043;BME280;44826;51.596;5.624;2023-05-23T03:16:35;101827.13;;;13.58;82.67
59043;BME280;44826;51.596;5.624;2023-05-23T03:19:00;101831.50;;;13.57;82.42
59043;BME280;44826;51.596;5.624;2023-05-23T03:21:25;101839.38;;;13.56;82.61
59043;BME280;44826;51.596;5.624;2023-05-23T03:23:51;101837.69;;;13.51;82.88
59043;BME280;44826;51.596;5.624;2023-05-23T03:26:16;101835.97;;;13.50;83.05
59043;BME280;44826;51.596;5.624;2023-05-23T03:28:41;101838.56;;;13.52;82.24
59043;BME280;44826;51.596;5.624;2023-05-23T03:31:07;101843.94;;;13.46;83.34
59043;BME280;44826;51.596;5.624;2023-05-23T03:33:32;101850.94;;;13.44;83.51
59043;BME280;44826;51.596;5.624;2023-05-23T03:35:57;101848.41;;;13.41;83.87
59043;BME280;44826;51.596;5.624;2023-05-23T03:38:23;101848.41;;;13.39;84.11
59043;BME280;44826;51.596;5.624;2023-05-23T03:40:48;101851.03;;;13.41;83.89
59043;BME280;44826;51.596;5.624;2023-05-23T03:43:13;101851.88;;;13.41;83.99
59043;BME280;44826;51.596;5.624;2023-05-23T03:45:38;101850.16;;;13.40;84.22
59043;BME280;44826;51.596;5.624;2023-05-23T03:48:04;101852.72;;;13.42;83.83
59043;BME280;44826;51.596;5.624;2023-05-23T03:50:29;101844.88;;;13.42;83.71
59043;BME280;44826;51.596;5.624;2023-05-23T03:52:55;101857.94;;;13.43;83.97
59043;BME280;44826;51.596;5.624;2023-05-23T03:55:20;101860.56;;;13.43;83.91
59043;BME280;44826;51.596;5.624;2023-05-23T03:57:50;101855.25;;;13.46;84.26
59043;BME280;44826;51.596;5.624;2023-05-23T04:00:19;101866.56;;;13.47;83.93
59043;BME280;44826;51.596;5.624;2023-05-23T04:02:45;101863.94;;;13.48;84.23
59043;BME280;44826;51.596;5.624;2023-05-23T04:05:11;101869.97;;;13.50;84.29
59043;BME280;44826;51.596;5.624;2023-05-23T04:07:37;101862.09;;;13.52;84.05
59043;BME280;44826;51.596;5.624;2023-05-23T04:10:03;101869.91;;;13.54;84.22
59043;BME280;44826;51.596;5.624;2023-05-23T04:12:28;101869.00;;;13.55;83.87
59043;BME280;44826;51.596;5.624;2023-05-23T04:14:56;101875.97;;;13.56;84.13
59043;BME280;44826;51.596;5.624;2023-05-23T04:17:22;101869.00;;;13.56;84.17
59043;BME280;44826;51.596;5.624;2023-05-23T04:19:48;101867.22;;;13.57;83.95
59043;BME280;44826;51.596;5.624;2023-05-23T04:22:13;101877.69;;;13.57;83.85
59043;BME280;44826;51.596;5.624;2023-05-23T04:24:39;101867.22;;;13.57;83.74
59043;BME280;44826;51.596;5.624;2023-05-23T04:27:04;101871.59;;;13.56;83.91
59043;BME280;44826;51.596;5.624;2023-05-23T04:29:30;101867.34;;;13.52;83.92
59043;BME280;44826;51.596;5.624;2023-05-23T04:31:56;101871.69;;;13.51;84.01
59043;BME280;44826;51.596;5.624;2023-05-23T04:34:21;101885.59;;;13.54;83.64
59043;BME280;44826;51.596;5.624;2023-05-23T04:36:47;101889.09;;;13.53;84.01
59043;BME280;44826;51.596;5.624;2023-05-23T04:39:13;101892.59;;;13.53;83.72
59043;BME280;44826;51.596;5.624;2023-05-23T04:41:40;101888.25;;;13.50;84.00
59043;BME280;44826;51.596;5.624;2023-05-23T04:44:05;101894.31;;;13.53;83.89
59043;BME280;44826;51.596;5.624;2023-05-23T04:46:31;101897.88;;;13.50;83.85
59043;BME280;44826;51.596;5.624;2023-05-23T04:48:56;101899.66;;;13.48;83.90
59043;BME280;44826;51.596;5.624;2023-05-23T04:51:23;101903.16;;;13.48;83.43
59043;BME280;44826;51.596;5.624;2023-05-23T04:53:49;101906.66;;;13.46;83.54
59043;BME280;44826;51.596;5.624;2023-05-23T04:56:15;101913.66;;;13.45;83.01
59043;BME280;44826;51.596;5.624;2023-05-23T04:58:42;101912.00;;;13.40;83.33
59043;BME280;44826;51.596;5.624;2023-05-23T05:01:09;101915.53;;;13.37;83.31
59043;BME280;44826;51.596;5.624;2023-05-23T05:03:35;101908.66;;;13.31;83.92
59043;BME280;44826;51.596;5.624;2023-05-23T05:06:01;101920.00;;;13.32;83.90
59043;BME280;44826;51.596;5.624;2023-05-23T05:08:26;101920.84;;;13.32;83.50
59043;BME280;44826;51.596;5.624;2023-05-23T05:10:53;101923.50;;;13.31;83.92
59043;BME280;44826;51.596;5.624;2023-05-23T05:13:19;101924.31;;;13.33;83.71
59043;BME280;44826;51.596;5.624;2023-05-23T05:15:45;101925.22;;;13.32;83.40
59043;BME280;44826;51.596;5.624;2023-05-23T05:18:10;101927.00;;;13.30;83.79
59043;BME280;44826;51.596;5.624;2023-05-23T05:20:36;101925.28;;;13.29;83.52
59043;BME280;44826;51.596;5.624;2023-05-23T05:23:01;101941.84;;;13.28;82.80
59043;BME280;44826;51.596;5.624;2023-05-23T05:25:26;101946.31;;;13.23;83.12
59043;BME280;44826;51.596;5.624;2023-05-23T05:27:55;101944.56;;;13.21;82.78
59043;BME280;44826;51.596;5.624;2023-05-23T05:30:21;101936.03;;;13.13;82.95
59043;BME280;44826;51.596;5.624;2023-05-23T05:32:46;101934.38;;;13.09;83.07
59043;BME280;44826;51.596;5.624;2023-05-23T05:35:11;101943.19;;;13.02;83.32
59043;BME280;44826;51.596;5.624;2023-05-23T05:37:40;101945.84;;;13.00;83.36
59043;BME280;44826;51.596;5.624;2023-05-23T05:40:05;101952.00;;;12.98;83.63
59043;BME280;44826;51.596;5.624;2023-05-23T05:42:31;101950.28;;;12.97;83.46
59043;BME280;44826;51.596;5.624;2023-05-23T05:44:57;101957.28;;;12.95;83.58
59043;BME280;44826;51.596;5.624;2023-05-23T05:47:22;101962.50;;;12.95;83.63
59043;BME280;44826;51.596;5.624;2023-05-23T05:49:47;101957.31;;;12.92;84.21
59043;BME280;44826;51.596;5.624;2023-05-23T05:52:13;101966.03;;;12.90;84.24
59043;BME280;44826;51.596;5.624;2023-05-23T05:54:38;101964.31;;;12.89;84.11
59043;BME280;44826;51.596;5.624;2023-05-23T05:57:03;101971.31;;;12.87;84.40
59043;BME280;44826;51.596;5.624;2023-05-23T05:59:29;101972.19;;;12.88;84.31
59043;BME280;44826;51.596;5.624;2023-05-23T06:01:54;101980.09;;;12.83;84.21
59043;BME280;44826;51.596;5.624;2023-05-23T06:04:19;101977.53;;;12.80;83.98
59043;BME280;44826;51.596;5.624;2023-05-23T06:06:45;101975.81;;;12.78;84.21
59043;BME280;44826;51.596;5.624;2023-05-23T06:09:10;101983.75;;;12.73;84.12
59043;BME280;44826;51.596;5.624;2023-05-23T06:11:36;101980.28;;;12.71;84.42
59043;BME280;44826;51.596;5.624;2023-05-23T06:14:05;101978.56;;;12.70;84.02
59043;BME280;44826;51.596;5.624;2023-05-23T06:16:30;101986.41;;;12.70;83.88
59043;BME280;44826;51.596;5.624;2023-05-23T06:18:56;101989.91;;;12.69;84.38
59043;BME280;44826;51.596;5.624;2023-05-23T06:21:21;101986.41;;;12.70;84.33
59043;BME280;44826;51.596;5.624;2023-05-23T06:23:46;101990.75;;;12.71;83.88
59043;BME280;44826;51.596;5.624;2023-05-23T06:26:12;101997.66;;;12.73;83.46
59043;BME280;44826;51.596;5.624;2023-05-23T06:28:37;101988.94;;;12.74;83.16
59043;BME280;44826;51.596;5.624;2023-05-23T06:31:05;101990.69;;;12.74;83.09
59043;BME280;44826;51.596;5.624;2023-05-23T06:33:33;101999.38;;;12.74;82.99
59043;BME280;44826;51.596;5.624;2023-05-23T06:35:59;102008.09;;;12.73;82.99
59043;BME280;44826;51.596;5.624;2023-05-23T06:38:26;102005.53;;;12.72;82.77
59043;BME280;44826;51.596;5.624;2023-05-23T06:40:51;102015.13;;;12.71;82.10
59043;BME280;44826;51.596;5.624;2023-05-23T06:43:17;102014.31;;;12.66;81.17
59043;BME280;44826;51.596;5.624;2023-05-23T06:45:44;102010.94;;;12.59;81.52
59043;BME280;44826;51.596;5.624;2023-05-23T06:48:10;102020.50;;;12.60;81.04
59043;BME280;44826;51.596;5.624;2023-05-23T06:50:35;102020.50;;;12.60;81.13
59043;BME280;44826;51.596;5.624;2023-05-23T06:53:01;102026.56;;;12.63;80.93
59043;BME280;44826;51.596;5.624;2023-05-23T06:55:26;102034.41;;;12.63;80.46
59043;BME280;44826;51.596;5.624;2023-05-23T06:57:52;102033.47;;;12.65;79.93
59043;BME280;44826;51.596;5.624;2023-05-23T07:00:17;102044.81;;;12.64;79.96
59043;BME280;44826;51.596;5.624;2023-05-23T07:02:43;102045.69;;;12.63;79.84
59043;BME280;44826;51.596;5.624;2023-05-23T07:05:13;102051.81;;;12.60;79.63
59043;BME280;44826;51.596;5.624;2023-05-23T07:07:38;102054.44;;;12.59;78.00
59043;BME280;44826;51.596;5.624;2023-05-23T07:10:04;102055.28;;;12.63;79.06
59043;BME280;44826;51.596;5.624;2023-05-23T07:12:29;102055.22;;;12.66;77.63
59043;BME280;44826;51.596;5.624;2023-05-23T07:14:54;102065.56;;;12.72;76.45
59043;BME280;44826;51.596;5.624;2023-05-23T07:17:19;102058.53;;;12.77;76.00
59043;BME280;44826;51.596;5.624;2023-05-23T07:19:45;102062.81;;;12.83;75.43
59043;BME280;44826;51.596;5.624;2023-05-23T07:22:10;102063.59;;;12.88;74.54
59043;BME280;44826;51.596;5.624;2023-05-23T07:24:35;102057.47;;;12.90;74.17
59043;BME280;44826;51.596;5.624;2023-05-23T07:27:01;102067.81;;;12.97;74.35
59043;BME280;44826;51.596;5.624;2023-05-23T07:29:26;102071.25;;;12.99;72.26
59043;BME280;44826;51.596;5.624;2023-05-23T07:31:51;102072.16;;;12.96;72.14
59043;BME280;44826;51.596;5.624;2023-05-23T07:34:17;102066.00;;;13.00;72.46
59043;BME280;44826;51.596;5.624;2023-05-23T07:36:43;102068.53;;;13.05;72.51
59043;BME280;44826;51.596;5.624;2023-05-23T07:39:08;102066.69;;;13.12;73.25
59043;BME280;44826;51.596;5.624;2023-05-23T07:41:33;102065.72;;;13.19;71.29
59043;BME280;44826;51.596;5.624;2023-05-23T07:43:58;102081.22;;;13.30;69.88
59043;BME280;44826;51.596;5.624;2023-05-23T07:46:24;102076.69;;;13.38;70.17
59043;BME280;44826;51.596;5.624;2023-05-23T07:48:49;102070.47;;;13.47;67.89
59043;BME280;44826;51.596;5.624;2023-05-23T07:51:14;102073.97;;;13.47;67.36
59043;BME280;44826;51.596;5.624;2023-05-23T07:53:45;102077.28;;;13.56;69.23
59043;BME280;44826;51.596;5.624;2023-05-23T07:56:10;102083.25;;;13.62;68.21
59043;BME280;44826;51.596;5.624;2023-05-23T07:58:35;102084.09;;;13.66;68.41
59043;BME280;44826;51.596;5.624;2023-05-23T08:01:01;102091.84;;;13.69;68.13
59043;BME280;44826;51.596;5.624;2023-05-23T08:03:27;102091.00;;;13.69;68.31
59043;BME280;44826;51.596;5.624;2023-05-23T08:05:52;102091.94;;;13.66;68.77
59043;BME280;44826;51.596;5.624;2023-05-23T08:08:18;102100.72;;;13.62;68.99
59043;BME280;44826;51.596;5.624;2023-05-23T08:10:43;102093.75;;;13.61;68.77
59043;BME280;44826;51.596;5.624;2023-05-23T08:13:09;102101.75;;;13.53;69.31
59043;BME280;44826;51.596;5.624;2023-05-23T08:15:35;102104.44;;;13.48;69.09
59043;BME280;44826;51.596;5.624;2023-05-23T08:18:00;102117.56;;;13.44;68.89
59043;BME280;44826;51.596;5.624;2023-05-23T08:20:26;102105.38;;;13.43;69.05
59043;BME280;44826;51.596;5.624;2023-05-23T08:23:01;102103.66;;;13.43;70.14
59043;BME280;44826;51.596;5.624;2023-05-23T08:25:27;102108.03;;;13.41;69.78
59043;BME280;44826;51.596;5.624;2023-05-23T08:27:57;102114.94;;;13.45;69.91
59043;BME280;44826;51.596;5.624;2023-05-23T08:30:26;102103.47;;;13.54;69.43
59043;BME280;44826;51.596;5.624;2023-05-23T08:32:52;102102.44;;;13.61;69.31
59043;BME280;44826;51.596;5.624;2023-05-23T08:35:19;102111.03;;;13.70;68.99
59043;BME280;44826;51.596;5.624;2023-05-23T08:37:45;102116.16;;;13.74;68.79
59043;BME280;44826;51.596;5.624;2023-05-23T08:40:17;102111.00;;;13.71;69.00
59043;BME280;44826;51.596;5.624;2023-05-23T08:42:43;102104.88;;;13.72;69.46
59043;BME280;44826;51.596;5.624;2023-05-23T08:45:09;102111.03;;;13.70;70.05
59043;BME280;44826;51.596;5.624;2023-05-23T08:47:36;102114.53;;;13.67;70.91
59043;BME280;44826;51.596;5.624;2023-05-23T08:50:13;102118.97;;;13.63;71.15
59043;BME280;44826;51.596;5.624;2023-05-23T08:52:43;102127.72;;;13.62;70.90
59043;BME280;44826;51.596;5.624;2023-05-23T08:55:12;102119.84;;;13.64;71.80
59043;BME280;44826;51.596;5.624;2023-05-23T08:57:38;102127.56;;;13.70;71.34
59043;BME280;44826;51.596;5.624;2023-05-23T09:00:09;102127.47;;;13.76;72.18
59043;BME280;44826;51.596;5.624;2023-05-23T09:02:39;102135.22;;;13.83;71.94
59043;BME280;44826;51.596;5.624;2023-05-23T09:05:07;102124.63;;;13.89;72.08
59043;BME280;44826;51.596;5.624;2023-05-23T09:07:34;102135.97;;;13.89;68.94
59043;BME280;44826;51.596;5.624;2023-05-23T09:09:59;102136.91;;;13.85;69.32
59043;BME280;44826;51.596;5.624;2023-05-23T09:12:24;102139.41;;;13.91;68.96
59043;BME280;44826;51.596;5.624;2023-05-23T09:14:50;102135.00;;;13.93;68.46
59043;BME280;44826;51.596;5.624;2023-05-23T09:17:18;102140.03;;;14.04;67.88
59043;BME280;44826;51.596;5.624;2023-05-23T09:19:44;102151.22;;;14.13;65.26
59043;BME280;44826;51.596;5.624;2023-05-23T09:22:11;102153.78;;;14.14;65.11
59043;BME280;44826;51.596;5.624;2023-05-23T09:24:37;102150.31;;;14.14;64.08
59043;BME280;44826;51.596;5.624;2023-05-23T09:27:04;102151.16;;;14.14;64.34
59043;BME280;44826;51.596;5.624;2023-05-23T09:29:30;102151.22;;;14.11;65.23
59043;BME280;44826;51.596;5.624;2023-05-23T09:31:59;102151.13;;;14.17;65.93
59043;BME280;44826;51.596;5.624;2023-05-23T09:34:34;102153.78;;;14.16;64.18
59043;BME280;44826;51.596;5.624;2023-05-23T09:36:59;102150.28;;;14.15;64.74
59043;BME280;44826;51.596;5.624;2023-05-23T09:39:24;102160.72;;;14.17;64.67
59043;BME280;44826;51.596;5.624;2023-05-23T09:41:50;102149.38;;;14.16;64.13
59043;BME280;44826;51.596;5.624;2023-05-23T09:44:21;102156.25;;;14.23;63.76
59043;BME280;44826;51.596;5.624;2023-05-23T09:46:47;102150.81;;;14.33;65.87
59043;BME280;44826;51.596;5.624;2023-05-23T09:49:16;102156.78;;;14.39;61.73
59043;BME280;44826;51.596;5.624;2023-05-23T09:51:42;102156.59;;;14.49;62.01
59043;BME280;44826;51.596;5.624;2023-05-23T09:54:08;102153.81;;;14.55;61.58
59043;BME280;44826;51.596;5.624;2023-05-23T09:56:36;102154.72;;;14.54;60.58
59043;BME280;44826;51.596;5.624;2023-05-23T09:59:04;102156.56;;;14.50;62.19
59043;BME280;44826;51.596;5.624;2023-05-23T10:01:32;102165.19;;;14.54;61.72
59043;BME280;44826;51.596;5.624;2023-05-23T10:03:58;102166.91;;;14.55;60.29
59043;BME280;44826;51.596;5.624;2023-05-23T10:06:57;102162.56;;;14.54;58.53
59043;BME280;44826;51.596;5.624;2023-05-23T10:09:18;102162.50;;;14.59;60.31
59043;BME280;44826;51.596;5.624;2023-05-23T10:14:37;102157.09;;;14.68;59.70
59043;BME280;44826;51.596;5.624;2023-05-23T10:17:06;102153.47;;;14.74;59.54
59043;BME280;44826;51.596;5.624;2023-05-23T10:22:00;102156.91;;;14.76;59.37
59043;BME280;44826;51.596;5.624;2023-05-23T10:24:26;102162.91;;;14.81;60.84
59043;BME280;44826;51.596;5.624;2023-05-23T10:26:52;102156.56;;;14.91;59.81
59043;BME280;44826;51.596;5.624;2023-05-23T10:29:21;102155.53;;;14.98;60.16
59043;BME280;44826;51.596;5.624;2023-05-23T10:31:47;102172.81;;;15.07;59.63
59043;BME280;44826;51.596;5.624;2023-05-23T10:37:23;102174.53;;;15.08;60.05
59043;BME280;44826;51.596;5.624;2023-05-23T10:39:56;102164.84;;;15.12;58.74
59043;BME280;44826;51.596;5.624;2023-05-23T10:45:13;102164.06;;;15.07;59.33
59043;BME280;44826;51.596;5.624;2023-05-23T10:47:39;102152.66;;;15.09;59.04
59043;BME280;44826;51.596;5.624;2023-05-23T10:50:05;102158.66;;;15.14;58.14
59043;BME280;44826;51.596;5.624;2023-05-23T10:52:38;102151.41;;;15.26;58.51
59043;BME280;44826;51.596;5.624;2023-05-23T10:55:12;102145.25;;;15.27;56.87
59043;BME280;44826;51.596;5.624;2023-05-23T10:57:37;102161.91;;;15.24;53.89
59043;BME280;44826;51.596;5.624;2023-05-23T11:00:03;102159.28;;;15.26;58.47
59043;BME280;44826;51.596;5.624;2023-05-23T11:02:28;102154.75;;;15.31;56.85
59043;BME280;44826;51.596;5.624;2023-05-23T11:05:22;102147.78;;;15.30;58.22
59043;BME280;44826;51.596;5.624;2023-05-23T11:08:06;102151.28;;;15.30;57.86
59043;BME280;44826;51.596;5.624;2023-05-23T11:10:32;102154.88;;;15.26;57.66
59043;BME280;44826;51.596;5.624;2023-05-23T11:13:05;102164.66;;;15.20;56.59
59043;BME280;44826;51.596;5.624;2023-05-23T11:15:40;102157.72;;;15.17;56.35
59043;BME280;44826;51.596;5.624;2023-05-23T11:18:06;102157.53;;;15.25;58.18
59043;BME280;44826;51.596;5.624;2023-05-23T11:20:32;102156.53;;;15.30;54.81
59043;BME280;44826;51.596;5.624;2023-05-23T11:23:00;102154.66;;;15.36;55.91
59043;BME280;44826;51.596;5.624;2023-05-23T11:25:43;102149.19;;;15.45;56.54
59043;BME280;44826;51.596;5.624;2023-05-23T11:28:10;102153.31;;;15.54;54.28
59043;BME280;44826;51.596;5.624;2023-05-23T11:30:36;102153.19;;;15.58;54.63
59043;BME280;44826;51.596;5.624;2023-05-23T11:33:12;102168.81;;;15.63;53.60
59043;BME280;44826;51.596;5.624;2023-05-23T11:35:41;102156.72;;;15.57;50.60
59043;BME280;44826;51.596;5.624;2023-05-23T11:38:07;102153.25;;;15.57;53.36
59043;BME280;44826;51.596;5.624;2023-05-23T11:43:04;102160.78;;;15.71;53.75
59043;BME280;44826;51.596;5.624;2023-05-23T11:45:31;102160.38;;;15.85;56.44
59043;BME280;44826;51.596;5.624;2023-05-23T11:47:56;102170.00;;;15.86;52.92
59043;BME280;44826;51.596;5.624;2023-05-23T11:50:21;102176.25;;;15.80;51.43
59043;BME280;44826;51.596;5.624;2023-05-23T11:52:48;102165.75;;;15.80;52.24
59043;BME280;44826;51.596;5.624;2023-05-23T11:55:18;102166.59;;;15.82;53.60
59043;BME280;44826;51.596;5.624;2023-05-23T11:57:45;102163.72;;;15.91;54.05
59043;BME280;44826;51.596;5.624;2023-05-23T12:00:10;102161.69;;;16.03;51.24
59043;BME280;44826;51.596;5.624;2023-05-23T12:02:40;102163.22;;;16.10;52.83
59043;BME280;44826;51.596;5.624;2023-05-23T12:05:09;102157.00;;;16.14;53.27
59043;BME280;44826;51.596;5.624;2023-05-23T12:07:39;102168.25;;;16.19;51.95
59043;BME280;44826;51.596;5.624;2023-05-23T12:10:04;102167.56;;;16.13;50.24
59043;BME280;44826;51.596;5.624;2023-05-23T12:12:31;102179.16;;;16.04;50.70
59043;BME280;44826;51.596;5.624;2023-05-23T12:14:57;102166.00;;;16.05;50.31
59043;BME280;44826;51.596;5.624;2023-05-23T12:17:22;102168.41;;;16.13;50.36
59043;BME280;44826;51.596;5.624;2023-05-23T12:19:48;102169.09;;;16.20;51.73
59043;BME280;44826;51.596;5.624;2023-05-23T12:22:13;102177.25;;;16.11;50.78
59043;BME280;44826;51.596;5.624;2023-05-23T12:24:44;102176.75;;;15.96;50.88
59043;BME280;44826;51.596;5.624;2023-05-23T12:27:11;102173.56;;;15.83;50.51
59043;BME280;44826;51.596;5.624;2023-05-23T12:29:36;102170.19;;;15.78;50.71
59043;BME280;44826;51.596;5.624;2023-05-23T12:32:05;102173.72;;;15.77;50.24
59043;BME280;44826;51.596;5.624;2023-05-23T12:34:31;102177.09;;;15.81;51.94
59043;BME280;44826;51.596;5.624;2023-05-23T12:36:58;102195.41;;;15.85;51.64
59043;BME280;44826;51.596;5.624;2023-05-23T12:39:24;102181.50;;;15.80;51.86
59043;BME280;44826;51.596;5.624;2023-05-23T12:41:51;102190.34;;;15.76;51.95
59043;BME280;44826;51.596;5.624;2023-05-23T12:44:16;102193.81;;;15.78;51.82
59043;BME280;44826;51.596;5.624;2023-05-23T12:46:42;102196.50;;;15.75;49.23
59043;BME280;44826;51.596;5.624;2023-05-23T12:49:07;102194.94;;;15.68;51.89
59043;BME280;44826;51.596;5.624;2023-05-23T12:51:33;102197.50;;;15.71;52.46
59043;BME280;44826;51.596;5.624;2023-05-23T12:53:58;102188.59;;;15.76;51.38
59043;BME280;44826;51.596;5.624;2023-05-23T12:56:24;102188.47;;;15.81;50.22
59043;BME280;44826;51.596;5.624;2023-05-23T12:58:50;102197.06;;;15.88;52.25
59043;BME280;44826;51.596;5.624;2023-05-23T13:01:15;102207.38;;;15.96;49.72
59043;BME280;44826;51.596;5.624;2023-05-23T13:03:40;102203.22;;;15.88;50.64
59043;BME280;44826;51.596;5.624;2023-05-23T13:06:06;102194.41;;;15.89;49.86